Map

Track Data

SID SEASON NUMBER BASIN SUBBASIN NAME ISO_TIME NATURE LAT LON WMO_WIND WMO_PRES WMO_AGENCY TRACK_TYPE DIST2LAND LANDFALL IFLAG USA_AGENCY USA_ATCF_ID USA_LAT USA_LON USA_RECORD USA_STATUS USA_WIND USA_PRES USA_SSHS USA_R34_NE USA_R34_SE USA_R34_SW USA_R34_NW USA_R50_NE USA_R50_SE USA_R50_SW USA_R50_NW USA_R64_NE USA_R64_SE USA_R64_SW USA_R64_NW USA_POCI USA_ROCI USA_RMW USA_EYE TOKYO_LAT TOKYO_LON TOKYO_GRADE TOKYO_WIND TOKYO_PRES TOKYO_R50_DIR TOKYO_R50_LONG TOKYO_R50_SHORT TOKYO_R30_DIR TOKYO_R30_LONG TOKYO_R30_SHORT TOKYO_LAND CMA_LAT CMA_LON CMA_CAT CMA_WIND CMA_PRES HKO_LAT HKO_LON HKO_CAT HKO_WIND HKO_PRES NEWDELHI_LAT NEWDELHI_LON NEWDELHI_GRADE NEWDELHI_WIND NEWDELHI_PRES NEWDELHI_CI NEWDELHI_DP NEWDELHI_POCI REUNION_LAT REUNION_LON REUNION_TYPE REUNION_WIND REUNION_PRES REUNION_TNUM REUNION_CI REUNION_RMW REUNION_R34_NE REUNION_R34_SE REUNION_R34_SW REUNION_R34_NW REUNION_R50_NE REUNION_R50_SE REUNION_R50_SW REUNION_R50_NW REUNION_R64_NE REUNION_R64_SE REUNION_R64_SW REUNION_R64_NW BOM_LAT BOM_LON BOM_TYPE BOM_WIND BOM_PRES BOM_TNUM BOM_CI BOM_RMW BOM_R34_NE BOM_R34_SE BOM_R34_SW BOM_R34_NW BOM_R50_NE BOM_R50_SE BOM_R50_SW BOM_R50_NW BOM_R64_NE BOM_R64_SE BOM_R64_SW BOM_R64_NW BOM_ROCI BOM_POCI BOM_EYE BOM_POS_METHOD BOM_PRES_METHOD NADI_LAT NADI_LON NADI_CAT NADI_WIND NADI_PRES WELLINGTON_LAT WELLINGTON_LON WELLINGTON_WIND WELLINGTON_PRES DS824_LAT DS824_LON DS824_STAGE DS824_WIND DS824_PRES TD9636_LAT TD9636_LON TD9636_STAGE TD9636_WIND TD9636_PRES TD9635_LAT TD9635_LON TD9635_WIND TD9635_PRES TD9635_ROCI NEUMANN_LAT NEUMANN_LON NEUMANN_CLASS NEUMANN_WIND NEUMANN_PRES MLC_LAT MLC_LON MLC_CLASS MLC_WIND MLC_PRES USA_GUST BOM_GUST BOM_GUST_PER REUNION_GUST REUNION_GUST_PER USA_SEAHGT USA_SEARAD_NE USA_SEARAD_SE USA_SEARAD_SW USA_SEARAD_NW STORM_SPEED STORM_DIR
2018079S09162 2018 16 SP MM IRIS 2018-03-19 18:00:00 NR -9.50000 162.000 main 65 22 ______O_______ -1 -9.50000 162.000 21 232
2018079S09162 2018 16 SP MM IRIS 2018-03-19 21:00:00 NR -10.1507 161.166 main 15 11 ______P_______ -1 -10.1507 161.166 15 250
2018079S09162 2018 16 SP MM IRIS 2018-03-20 00:00:00 NR -10.0000 160.600 main 11 0 ______O_______ -1 -10.0000 160.600 16 335
2018079S09162 2018 16 SP MM IRIS 2018-03-20 03:00:00 NR -8.73723 160.507 main 24 15 ______P_______ -1 -8.73723 160.507 20 6
2018079S09162 2018 16 SP MM IRIS 2018-03-20 06:00:00 NR -8.00000 160.800 main 44 0 ______O_______ -1 -8.00000 160.800 16 144
2018079S09162 2018 16 SP MM IRIS 2018-03-20 09:00:00 NR -10.0156 161.441 main 33 0 ______P_______ -1 -10.0156 161.441 42 164
2018079S09162 2018 16 SP MM IRIS 2018-03-20 12:00:00 NR -12.0000 162.000 main 134 56 ______O_______ -1 -12.0000 162.000 12 162
2018079S09162 2018 16 SP MM IRIS 2018-03-20 15:00:00 NR -11.1699 161.830 main 44 0 ______P_______ -1 -11.1699 161.830 23 350
2018079S09162 2018 16 SP MM IRIS 2018-03-20 18:00:00 NR -9.80000 161.600 main 31 24 ______O_______ -1 -9.80000 161.600 13 8
2018079S09162 2018 16 SP MM IRIS 2018-03-20 21:00:00 NR -9.88780 162.015 main 60 46 ______P_______ -1 -9.88780 162.015 9 117
2018079S09162 2018 16 SP MM IRIS 2018-03-21 00:00:00 NR -10.2000 162.400 main 49 49 ______O_______ -1 -10.2000 162.400 2 27
2018079S09162 2018 16 SP MM IRIS 2018-03-21 03:00:00 NR -9.70763 162.107 main 77 43 ______P_______ -1 -9.70763 162.107 9 320
2018079S09162 2018 16 SP MM IRIS 2018-03-21 06:00:00 NR -9.50000 161.800 main 43 0 ______O_______ -1 -9.50000 161.800 10 0
2018079S09162 2018 16 SP MM IRIS 2018-03-21 09:00:00 NR -10.6727 162.103 main 0 0 ______P_______ -1 -10.6727 162.103 24 163
2018079S09162 2018 16 SP MM IRIS 2018-03-21 12:00:00 NR -11.8000 162.500 main 114 79 ______O_______ -1 -11.8000 162.500 9 160
2018079S09162 2018 16 SP MM IRIS 2018-03-21 15:00:00 NR -11.4644 162.403 main 79 15 ______P_______ -1 -11.4644 162.403 10 1
2018079S09162 2018 16 SP MM IRIS 2018-03-21 18:00:00 NR -10.8000 162.500 main 21 21 ______O_______ -1 -10.8000 162.500 13 58
2018079S09162 2018 16 SP MM IRIS 2018-03-21 21:00:00 NR -10.7662 163.527 main 131 131 ______P_______ -1 -10.7662 163.527 20 93
2018079S09162 2018 16 SP MM IRIS 2018-03-22 00:00:00 NR -10.9000 164.500 main 240 240 ______O_______ -1 -10.9000 164.500 12 101
2018079S09162 2018 16 SP MM IRIS 2018-03-22 03:00:00 NR -11.0000 164.700 main 263 244 ______O_______ -1 -11.0000 164.700 3 0
2018079S09162 2018 16 SP MM IRIS 2018-03-22 06:00:00 NR -11.2000 164.500 main 244 228 ______O_______ -1 -11.2000 164.500 6 218
2018079S09162 2018 16 SP MM IRIS 2018-03-22 09:00:00 NR -11.5000 164.300 main 231 231 ______O_______ -1 -11.5000 164.300 9 192
2018079S09162 2018 16 SP MM IRIS 2018-03-22 12:00:00 NR -12.1000 164.300 main 262 262 ______O_______ -1 -12.1000 164.300 9 0
2018079S09162 2018 16 SP MM IRIS 2018-03-22 15:00:00 NR -12.4000 164.300 main 282 282 ______O_______ -1 -12.4000 164.300 4 84
2018079S09162 2018 16 SP MM IRIS 2018-03-22 18:00:00 DS -12.0600 164.720 main 299 273 O_____O_______ jtwc_sh SH172018 -12.3000 164.000 LO 25 1004 -3 1005 160 60 -12.0000 164.900 25 999 30 300 1006 45 45 4 228
2018079S09162 2018 16 SP MM IRIS 2018-03-22 21:00:00 DS -12.6475 164.018 main 273 273 P_____O_______ SH172018 -12.5426 163.755 LO 25 1004 -3 1005 155 60 -12.7000 164.150 25 999 30 300 1004 45 45 9 217
2018079S09162 2018 16 SP MM IRIS 2018-03-23 00:00:00 DS -12.7429 164.186 main 296 296 O_____O_______ jtwc_sh SH172018 -12.8000 163.500 LO 25 1004 -3 1005 150 60 -12.7000 164.700 25 999 1004 45 45 6 194
2018079S09162 2018 16 SP MM IRIS 2018-03-23 03:00:00 DS -13.2362 163.861 main 320 296 P_____O_______ SH172018 -13.0724 163.223 LO 25 1004 -3 1005 165 55 -13.4000 164.500 25 1000 1004 45 45 11 239
2018079S09162 2018 16 SP MM IRIS 2018-03-23 06:00:00 TS -13.3300 163.190 main 296 296 O_____O_______ jtwc_sh SH172018 -13.3000 162.900 TD 25 1004 -1 1005 180 50 -13.3600 163.480 25 1000 1004 45 45 8 251
2018079S09162 2018 16 SP MM IRIS 2018-03-23 09:00:00 TS -13.4875 163.101 main 314 302 P_____O_______ SH172018 -13.4150 162.522 TD 25 1004 -1 1005 180 50 -13.5600 163.680 25 1000 1004 45 45 9 259
2018079S09162 2018 16 SP MM IRIS 2018-03-23 12:00:00 TS -13.5000 162.267 25 999 nadi main 302 302 O_____O_______ jtwc_sh SH172018 -13.5000 162.100 TD 25 1004 -1 1005 180 50 -13.5000 162.400 25 999 119 1006 -13.5000 162.400 -1 25 999 40 40 13 265
2018079S09162 2018 16 SP MM IRIS 2018-03-23 15:00:00 TS -13.5871 161.807 main 313 313 P_____VI______ SH172018 -13.6425 161.643 TD 27 1003 -1 1004 172 50 -13.5000 161.900 35 998 149 1006 -13.6504 161.950 32 996 49 49 9 251
2018079S09162 2018 16 SP MM IRIS 2018-03-23 18:00:00 TS -13.8000 161.391 40 993 nadi main 338 338 O_____O_______ jtwc_sh SH172018 -13.8000 161.200 TD 30 1002 -1 1004 165 50 -13.8000 161.500 40 993 24 170 130 70 119 179 1006 -13.8000 161.500 40 993 55 55 8 249
2018079S09162 2018 16 SP MM IRIS 2018-03-23 21:00:00 TS -13.8901 161.011 main 357 357 P_____VI______ SH172018 -13.9499 160.827 TD 30 1002 -1 1005 160 50 -13.8000 161.200 40 993 21 170 130 70 119 179 1006 -13.9505 161.000 37 994 55 55 9 259
2018079S09162 2018 16 SP MM IRIS 2018-03-24 00:00:00 TS -13.9667 160.500 35 995 nadi main 385 385 O_____O_______ jtwc_sh SH172018 -14.1000 160.500 TD 30 1002 -1 1006 155 50 -13.8000 160.500 35 995 19 90 90 50 39 179 1008 -14.1000 160.500 35 995 49 49 8 250
2018079S09162 2018 16 SP MM IRIS 2018-03-24 03:00:00 TS -14.1825 160.193 main 418 418 P_____V_______ SH172018 -14.2650 160.185 TD 30 1002 -1 1006 155 50 -14.1000 160.200 35 995 19 90 90 50 39 164 1008 49 49 7 242
2018079S09162 2018 16 SP EA IRIS 2018-03-24 06:00:00 TS -14.3000 159.850 35 997 bom main 442 442 O_____O_______ jtwc_sh SH172018 -14.4000 159.900 TD 30 1002 -1 1006 155 50 -14.2000 159.800 35 997 19 90 90 50 39 150 1006 49 49 4 237
2018079S09162 2018 16 SP EA IRIS 2018-03-24 09:00:00 TS -14.3825 159.875 main 452 452 P_____O_______ SH172018 -14.4649 159.650 TD 30 1001 -1 1006 155 50 -14.3000 160.100 35 999 19 90 90 50 39 150 1008 49 49 3 251
2018079S09162 2018 16 SP EA IRIS 2018-03-24 12:00:00 TS -14.4000 159.550 33 998 bom main 468 474 O_____O_______ jtwc_sh SH172018 -14.5000 159.400 TD 30 1000 -1 1006 155 50 -14.3000 159.700 33 998 1008 45 45 6 270
2018079S09162 2018 16 SP EA IRIS 2018-03-24 15:00:00 TS -14.3826 159.274 35 998 bom main 485 485 P_____O_______ SH172018 -14.5651 159.048 TD 30 1000 -1 1006 155 50 -14.2000 159.500 35 998 1008 49 49 5 270
2018079S09162 2018 16 SP EA IRIS 2018-03-24 18:00:00 TS -14.4000 159.000 35 998 bom main 504 504 O_____O_______ jtwc_sh SH172018 -14.6000 158.800 TD 30 1000 -1 1006 155 50 -14.2000 159.200 35 998 1008 49 49 6 267
2018079S09162 2018 16 SP EA IRIS 2018-03-24 21:00:00 TS -14.4137 158.681 30 1002 bom main 523 520 P_____O_______ SH172018 -14.5275 158.863 TD 30 1000 -1 1006 155 50 -14.3000 158.500 30 1002 1008 45 45 1 197
2018079S09162 2018 16 SP EA IRIS 2018-03-25 00:00:00 TS -14.5000 158.950 30 1000 bom main 513 504 O_____O_______ jtwc_sh SH172018 -14.5000 159.000 TD 30 1000 -1 1006 155 50 -14.5000 158.900 30 1000 1008 45 45 3 83
2018079S09162 2018 16 SP EA IRIS 2018-03-25 03:00:00 TS -14.3737 159.001 30 1001 bom main 504 504 P_____O_______ SH172018 -14.6474 159.002 TD 30 1000 -1 1006 207 50 -14.1000 159.000 30 1001 1008 45 45 2 172
2018079S09162 2018 16 SP EA IRIS 2018-03-25 06:00:00 TS -14.7000 158.950 30 999 bom main 531 531 O_____O_______ jtwc_sh SH172018 -14.9000 158.900 TD 30 1000 -1 1007 260 50 -14.5000 159.000 30 999 1008 45 45 7 193
2018079S09162 2018 16 SP EA IRIS 2018-03-25 09:00:00 TS -15.0926 158.825 30 1001 bom main 581 581 P_____O_______ SH172018 -15.1851 158.650 TD 30 1000 -1 1007 260 50 -15.0000 159.000 30 1001 1008 45 45 10 216
2018079S09162 2018 16 SP EA IRIS 2018-03-25 12:00:00 TS -15.5000 158.350 30 1002 bom main 642 642 O_____O_______ jtwc_sh SH172018 -15.5000 158.400 TD 30 1000 -1 1007 260 50 -15.5000 158.300 30 1002 1.50000 1.50000 1008 45 45 7 215
2018079S09162 2018 16 SP EA IRIS 2018-03-25 15:00:00 TS -15.6575 158.414 30 1001 bom main 660 654 P_____O_______ SH172018 -15.8149 158.327 TD 30 1000 -1 1006 255 50 -15.5000 158.500 30 1001 1008 45 45 4 158
2018079S09162 2018 16 SP EA IRIS 2018-03-25 18:00:00 TS -15.8500 158.500 30 1000 bom main 664 673 O_____O_______ jtwc_sh SH172018 -16.1000 158.300 TD 30 1000 -1 1005 250 50 -15.6000 158.700 30 1000 1008 45 45 6 191
2018079S09162 2018 16 SP EA IRIS 2018-03-25 21:00:00 TS -16.1963 158.300 30 1001 bom main 713 713 P_____O_______ SH172018 -16.2925 158.200 TD 30 1000 -1 1005 247 50 -16.1000 158.400 30 1001 1008 45 45 8 209
2018079S09162 2018 16 SP EA IRIS 2018-03-26 00:00:00 TS -16.5500 158.100 30 1000 bom main 753 728 O_____O_______ jtwc_sh SH172018 -16.5000 158.100 TD 30 1000 -1 1006 245 50 -16.6000 158.100 30 1000 2.00000 2.00000 110 1006 45 45 8 193
2018079S09162 2018 16 SP EA IRIS 2018-03-26 03:00:00 TS -16.9675 158.118 30 1000 bom main 722 711 P_____V_______ SH172018 -16.8350 158.035 TD 30 1000 -1 1006 235 50 -17.1000 158.200 30 1000 110 1006 45 45 8 187
2018079S09162 2018 16 SP EA IRIS 2018-03-26 06:00:00 TS -17.3286 158.000 25 1000 bom main 715 699 O_____O_______ jtwc_sh SH172018 -17.2000 158.000 TD 30 1000 -1 1006 225 50 -17.5000 158.000 25 1000 1.50000 2.00000 110 1004 45 45 7 193
2018079S09162 2018 16 SP EA IRIS 2018-03-26 09:00:00 TS -17.6359 157.953 main 699 685 P_____P_______ SH172018 -17.5075 157.992 TD 30 1000 -1 1006 225 50 -17.8927 157.875 25 1000 1004 6 183
2018079S09162 2018 16 SP EA IRIS 2018-03-26 12:00:00 TS -17.8940 157.960 25 1001 bom main 685 676 O_____O_______ jtwc_sh SH172018 -17.8000 158.000 TD 30 1000 -1 1006 225 50 -18.2700 157.800 25 1001 1004 45 45 4 174
2018079S09162 2018 16 SP EA IRIS 2018-03-26 15:00:00 TS -18.0775 158.000 main 676 664 P_____________ SH172018 -18.0775 158.000 TD 27 1002 -1 1006 230 50 5 175
2018079S09162 2018 16 SP EA IRIS 2018-03-26 18:00:00 TS -18.4000 158.000 main 664 650 O_____________ jtwc_sh SH172018 -18.4000 158.000 TD 25 1004 -1 1006 235 50 8 0
2018079S09162 2018 16 SP EA IRIS 2018-03-26 21:00:00 TS -18.8275 157.978 main 650 637 P_____________ SH172018 -18.8275 157.978 TD 25 1004 -1 1006 210 50 9 0
2018079S09162 2018 16 SP EA IRIS 2018-03-27 00:00:00 TS -19.3000 158.000 main 637 618 O_____________ jtwc_sh SH172018 -19.3000 158.000 TD 25 1004 -1 1006 185 50 10 171
2018079S09162 2018 16 SP EA IRIS 2018-03-27 03:00:00 TS -19.7950 158.142 main 618 594 P_____________ SH172018 -19.7950 158.142 TD 25 1004 -1 1006 185 50 9 163
2018079S09162 2018 16 SP EA IRIS 2018-03-27 06:00:00 TS -20.2000 158.300 main 594 594 O_____________ jtwc_sh SH172018 -20.2000 158.300 TD 25 1004 -1 1006 185 50 6 162
2018079S09162 2018 16 SP EA IRIS 2018-03-27 09:00:00 TS -20.3424 158.335 main 594 583 P_____________ SH172018 -20.3424 158.335 TD 25 1003 -1 1006 185 50 3 163
2018079S09162 2018 16 SP EA IRIS 2018-03-27 12:00:00 TS -20.5000 158.400 main 583 564 O_____________ jtwc_sh SH172018 -20.5000 158.400 TD 25 1002 -1 1006 185 50 7 156
2018079S09162 2018 16 SP EA IRIS 2018-03-27 15:00:00 TS -20.9476 158.627 main 565 543 P_____________ SH172018 -20.9476 158.627 TD 25 1002 -1 1006 192 50 11 155
2018079S09162 2018 16 SP EA IRIS 2018-03-27 18:00:00 TS -21.5000 158.900 main 546 538 O_____________ jtwc_sh SH172018 -21.5000 158.900 TD 25 1002 -1 1006 200 50 12 157
2018079S09162 2018 16 SP EA IRIS 2018-03-27 21:00:00 TS -22.0600 159.137 main 546 536 P_____________ SH172018 -22.0600 159.137 TD 25 1003 -1 1006 200 50 11 160
2018079S09162 2018 16 SP EA IRIS 2018-03-28 00:00:00 TS -22.5000 159.300 main 545 545 O_____________ jtwc_sh SH172018 -22.5000 159.300 TD 25 1004 -1 1006 200 50 7 163
2018079S09162 2018 16 SP EA IRIS 2018-03-28 03:00:00 TS -22.6824 159.338 main 555 555 P_____________ SH172018 -22.6824 159.338 TD 25 1004 -1 1005 210 50 2 172
2018079S09162 2018 16 SP EA IRIS 2018-03-28 06:00:00 TS -22.7000 159.300 main 555 555 O_____________ jtwc_sh SH172018 -22.7000 159.300 TD 25 1004 -1 1005 220 50 0 0
2018079S09162 2018 16 SP EA IRIS 2018-03-28 09:00:00 TS -22.6722 159.333 main 555 550 P_____________ SH172018 -22.6722 159.333 TD 27 1002 -1 1005 222 50 1 320
2018079S09162 2018 16 SP EA IRIS 2018-03-28 12:00:00 TS -22.6000 159.200 main 559 559 O_____________ jtwc_sh SH172018 -22.6000 159.200 TD 30 1000 -1 1005 225 50 5 283
2018079S09162 2018 16 SP EA IRIS 2018-03-28 15:00:00 TS -22.5573 158.770 main 596 552 P_____________ SH172018 -22.5573 158.770 TD 32 998 -1 1005 237 60 10 276
2018079S09162 2018 16 SP EA IRIS 2018-03-28 18:00:00 TS -22.5000 158.100 main 552 481 O_____________ jtwc_sh SH172018 -22.5000 158.100 TS 35 996 0 60 120 90 60 1005 250 70 14 273
2018079S09162 2018 16 SP EA IRIS 2018-03-28 21:00:00 TS -22.4889 157.282 main 481 454 P_____________ SH172018 -22.4889 157.282 TS 37 994 0 60 120 90 60 1005 250 70 16 273
2018079S09162 2018 16 SP EA IRIS 2018-03-28 22:30:00 TS -22.4276 156.815 25 bom main 446 421 P_____O_______ SH172018 -22.4320 156.836 TS 38 993 0 60 120 90 60 1005 250 70 -22.4100 156.730 25 1004 45 45 17 285
2018079S09162 2018 16 SP EA IRIS 2018-03-29 00:00:00 SS -22.2697 156.382 main 421 403 O_____P_______ jtwc_sh SH172018 -22.3000 156.400 SS 40 993 -2 60 120 90 60 1005 250 70 -22.2092 156.346 25 1004 17 300
2018079S09162 2018 16 SP EA IRIS 2018-03-29 03:00:00 SS -21.7885 155.603 main 409 409 O_____P_______ jtwc_sh SH172018 -21.8000 155.600 SS 40 993 -2 60 120 90 60 1005 250 70 -21.7731 155.608 25 1004 17 306
2018079S09162 2018 16 SP EA IRIS 2018-03-29 03:30:00 SS -21.6892 155.520 25 bom main 412 412 P_____O_______ SH172018 -21.6784 155.539 SS 39 993 -2 63 120 95 70 1005 250 70 -21.7000 155.500 25 1004 45 45 13 337
2018079S09162 2018 16 SP EA IRIS 2018-03-29 06:00:00 SS -21.1767 155.321 main 451 451 O_____P_______ jtwc_sh SH172018 -21.0000 155.500 SS 35 998 -2 80 120 120 120 1005 250 70 -21.3533 155.143 11 346
2018079S09162 2018 16 SP EA IRIS 2018-03-29 09:00:00 SS -20.6974 155.253 main 502 502 P_____P_______ SH172018 -20.4443 155.574 SS 32 999 -2 1005 250 60 -20.9506 154.932 9 354
2018079S09162 2018 16 SP EA IRIS 2018-03-29 12:00:00 SS -20.3319 155.231 main 517 517 O_____P_______ jtwc_sh SH172018 -20.1000 155.600 SD 30 1000 -2 1005 250 50 -20.5638 154.862 7 346
2018079S09162 2018 16 SP EA IRIS 2018-03-29 15:00:00 SS -20.0321 155.076 main 525 512 P_____P_______ SH172018 -19.8701 155.317 SD 30 1000 -2 1004 250 50 -20.1942 154.835 7 326
2018079S09162 2018 16 SP EA IRIS 2018-03-29 18:00:00 SS -19.7712 154.826 main 512 510 O_____P_______ jtwc_sh SH172018 -19.7000 154.900 SD 30 1000 -2 1004 250 50 -19.8424 154.751 7 316
2018079S09162 2018 16 SP EA IRIS 2018-03-29 20:10:00 SS -19.5725 154.601 25 bom main 510 509 P_____O_______ SH172018 -19.5451 154.602 SD 30 1000 -2 1004 231 50 -19.6000 154.600 25 1004 45 45 9 310
2018079S09162 2018 16 SP EA IRIS 2018-03-29 21:00:00 SS -19.4965 154.479 main 509 494 P_____P_______ SH172018 -19.4801 154.485 SD 30 1000 -2 1004 225 50 -19.5130 154.473 25 1004 10 306
2018079S09162 2018 16 SP EA IRIS 2018-03-30 00:00:00 SS -19.2014 154.053 main 502 495 O_____P_______ jtwc_sh SH172018 -19.2000 154.100 SD 30 1000 -2 1004 200 50 -19.2028 154.007 25 1004 10 311
2018079S09162 2018 16 SP EA IRIS 2018-03-30 01:50:00 SS -18.9918 153.867 25 bom main 505 498 P_____O_______ SH172018 -18.9836 153.934 SD 30 1000 -2 1004 200 50 -19.0000 153.800 25 1004 45 45 8 326
2018079S09162 2018 16 SP EA IRIS 2018-03-30 03:00:00 SS -18.8538 153.801 main 507 507 P_____P_______ SH172018 -18.8298 153.843 SD 30 1000 -2 1004 200 50 -18.8778 153.758 25 1004 9 331
2018079S09162 2018 16 SP EA IRIS 2018-03-30 03:30:00 SS -18.7805 153.752 25 1002 bom main 515 509 P_____O_______ SH172018 -18.7609 153.805 SD 30 1000 -2 1004 200 50 -18.8000 153.700 25 1002 1004 45 45 12 325
2018079S09162 2018 16 SP EA IRIS 2018-03-30 04:00:00 SS -18.6953 153.683 25 1002 bom main 518 518 P_____O_______ SH172018 -18.6907 153.766 SD 30 1000 -2 1004 200 50 -18.7000 153.600 25 1002 1004 45 45 10 334
2018079S09162 2018 16 SP EA IRIS 2018-03-30 06:00:00 SS -18.4000 153.550 25 1002 bom main 539 534 O_____O_______ jtwc_sh SH172018 -18.4000 153.600 SD 30 1000 -2 1004 200 50 -18.4000 153.500 25 1002 1004 45 45 10 334
2018079S09162 2018 16 SP EA IRIS 2018-03-30 09:00:00 SS -17.9368 153.292 main 543 534 P_____P_______ SH172018 -17.9423 153.295 SD 30 999 -2 1003 200 50 -17.9312 153.289 25 1000 1004 11 330
2018079S09162 2018 16 SP EA IRIS 2018-03-30 10:00:00 SS -17.7947 153.188 25 1000 bom main 540 535 P_____O_______ SH172018 -17.7894 153.176 SD 30 998 -2 1002 200 50 -17.8000 153.200 25 1000 1004 45 45 10 320
2018079S09162 2018 16 SP EA IRIS 2018-03-30 12:00:00 SS -17.5500 152.950 30 997 bom main 541 522 O_____O_______ jtwc_sh SH172018 -17.5000 152.900 SD 30 998 -2 1002 200 50 -17.6000 153.000 30 997 1004 45 45 12 312
2018079S09162 2018 16 SP EA IRIS 2018-03-30 14:00:00 SS -17.2755 152.577 30 998 bom main 522 513 P_____O_______ SH172018 -17.2510 152.554 SD 30 998 -2 1002 208 50 -17.3000 152.600 30 998 1004 45 45 13 304
2018079S09162 2018 16 SP EA IRIS 2018-03-30 15:00:00 SS -17.1782 152.383 main 513 506 P_____P_______ SH172018 -17.1352 152.365 SD 30 999 -2 1003 212 50 -17.2212 152.400 30 998 1004 13 297
2018079S09162 2018 16 SP EA IRIS 2018-03-30 16:00:00 SS -17.0863 152.186 30 998 bom main 506 494 P_____O_______ SH172018 -17.0226 152.173 SD 30 999 -2 1003 216 50 -17.1500 152.200 30 998 1004 45 45 13 301
2018079S09162 2018 16 SP EA IRIS 2018-03-30 18:00:00 TS -16.8500 151.800 30 998 bom main 503 493 O_____O_______ jtwc_sh SH172018 -16.8000 151.800 TD 30 1000 -1 1004 225 50 -16.9000 151.800 30 998 1004 45 45 13 304
2018079S09162 2018 16 SP EA IRIS 2018-03-30 20:00:00 TS -16.6028 151.437 30 998 bom main 496 496 P_____O_______ SH172018 -16.5557 151.473 TD 28 1001 -1 1004 226 50 -16.6500 151.400 30 998 1004 45 45 12 308
2018079S09162 2018 16 SP EA IRIS 2018-03-30 21:00:00 TS -16.4780 151.306 main 500 500 P_____P_______ SH172018 -16.4349 151.320 TD 27 1002 -1 1005 227 50 -16.5212 151.293 30 998 1004 10 315
2018079S09162 2018 16 SP EA IRIS 2018-03-30 22:00:00 TS -16.3587 151.187 30 998 bom main 504 502 P_____O_______ SH172018 -16.3174 151.173 TD 26 1002 -1 1005 228 50 -16.4000 151.200 30 998 1004 45 45 10 310
2018079S09162 2018 16 SP EA IRIS 2018-03-31 00:00:00 TS -16.1500 150.900 30 998 bom main 515 504 O_____O_______ jtwc_sh SH172018 -16.1000 150.900 TD 25 1004 -1 1006 230 50 -16.2000 150.900 30 998 1004 45 45 10 306
2018079S09162 2018 16 SP EA IRIS 2018-03-31 02:00:00 TS -15.9560 150.617 30 998 bom main 504 497 P_____O_______ SH172018 -15.9120 150.635 TD 25 1004 -1 1005 230 53 -16.0000 150.600 30 998 1004 45 45 9 307
2018079S09162 2018 16 SP EA IRIS 2018-03-31 03:00:00 TS -15.8675 150.506 main 497 492 P_____P_______ SH172018 -15.8275 150.513 TD 25 1004 -1 1005 230 55 -15.9075 150.500 30 998 1004 8 311
2018079S09162 2018 16 SP EA IRIS 2018-03-31 04:00:00 TS -15.7739 150.399 30 998 bom main 492 481 P_____O_______ SH172018 -15.7479 150.399 TD 25 1004 -1 1005 230 56 -15.8000 150.400 30 998 1004 45 45 9 313
2018079S09162 2018 16 SP EA IRIS 2018-03-31 06:00:00 TS -15.5500 150.150 30 998 bom main 486 467 O_____O_______ jtwc_sh SH172018 -15.6000 150.200 TD 25 1004 -1 1005 230 60 -15.5000 150.100 30 998 1004 45 45 8 311
2018079S09162 2018 16 SP EA IRIS 2018-03-31 08:00:00 TS -15.4239 149.974 30 997 bom main 472 463 P_____O_______ SH172018 -15.4478 150.049 TD 25 1004 -1 1004 223 54 -15.4000 149.900 30 997 1004 45 45 6 308
2018079S09162 2018 16 SP EA IRIS 2018-03-31 09:00:00 TS -15.3608 149.904 main 463 458 P_____P_______ SH172018 -15.3774 149.985 TD 25 1004 -1 1004 220 52 -15.3443 149.823 30 996 1004 5 317
2018079S09162 2018 16 SP EA IRIS 2018-03-31 12:00:00 TS -15.1848 149.744 main 453 449 O_____P_______ jtwc_sh SH172018 -15.2000 149.800 TD 25 1004 -1 1003 210 45 -15.1696 149.689 30 996 1004 4 317
2018079S09162 2018 16 SP EA IRIS 2018-03-31 15:00:00 TS -15.0443 149.594 main 452 441 P_____P_______ SH172018 -15.0550 149.550 TD 25 1004 -1 1003 222 45 -15.0335 149.639 30 996 1004 3 303
2018079S09162 2018 16 SP EA IRIS 2018-03-31 18:00:00 TS -15.0000 149.450 30 996 bom main 441 419 O_____O_______ jtwc_sh SH172018 -15.0000 149.300 TD 25 1004 -1 1004 235 45 -15.0000 149.600 30 996 1004 45 45 3 261
2018079S09162 2018 16 SP EA IRIS 2018-03-31 21:00:00 TS -15.0959 149.276 main 419 406 P_____P_______ SH172018 -15.0700 149.055 TD 25 1004 -1 1003 205 42 -15.1218 149.496 27 997 1004 4 229
2018079S09162 2018 16 SP EA IRIS 2018-04-01 00:00:00 TS -15.2500 149.150 25 998 bom main 406 391 O_____O_______ jtwc_sh SH172018 -15.2000 148.900 TD 25 1004 -1 1003 175 40 -15.3000 149.400 25 998 1.50000 1.50000 1004 45 45 3 207
2018079S09162 2018 16 SP EA IRIS 2018-04-01 03:00:00 TS -15.3445 149.140 main 391 385 P_____P_______ SH172018 -15.2591 148.947 TD 25 1004 -1 1003 175 40 -15.4299 149.334 25 998 1004 2 0
2018079S09162 2018 16 SP EA IRIS 2018-04-01 04:00:00 TS -15.3951 149.138 25 999 bom main 385 380 P_____O_______ SH172018 -15.2902 148.975 TD 25 1004 -1 1003 175 40 -15.5000 149.300 25 999 1004 45 45 4 191
2018079S09162 2018 16 SP EA IRIS 2018-04-01 06:00:00 TS -15.5500 149.100 25 997 bom main 380 366 O_____O_______ jtwc_sh SH172018 -15.4000 149.000 TD 25 1004 -1 1003 175 40 -15.7000 149.200 25 997 1.50000 1.50000 1004 45 45 5 192
2018079S09162 2018 16 SP EA IRIS 2018-04-01 09:00:00 TS -15.7603 149.055 main 366 351 O_____P_______ jtwc_sh SH172018 -15.7000 148.900 TD 25 1004 -1 1003 175 40 -15.8207 149.211 27 996 1004 4 202
2018079S09162 2018 16 SP EA IRIS 2018-04-01 12:00:00 TS -15.9000 148.950 30 996 bom main 351 326 O_____O_______ jtwc_sh SH172018 -15.9000 148.600 TD 30 998 -1 1003 175 40 -15.9000 149.300 30 996 2.00000 2.00000 1004 45 45 5 202
2018079S09162 2018 16 SP EA IRIS 2018-04-01 15:00:00 TS -16.2130 148.867 main 326 304 P_____P_______ SH172018 -16.2534 148.379 TD 32 997 -1 1003 172 45 -16.1727 149.355 32 994 1004 7 193
2018079S09162 2018 16 SP EA IRIS 2018-04-01 18:00:00 TS -16.5500 148.795 35 993 bom main 304 284 O_____O_______ jtwc_sh SH172018 -16.6000 148.300 TS 35 996 0 40 70 70 50 1004 170 50 -16.5000 149.290 35 993 2.50000 2.50000 119 1004 49 49 6 194
2018079S09162 2018 16 SP EA IRIS 2018-04-01 21:00:00 TS -16.7688 148.721 35 993 bom main 284 274 P_____O_______ SH172018 -16.7375 148.412 TS 35 998 0 45 75 75 65 1005 180 55 -16.8000 149.030 35 993 2.50000 2.50000 119 1004 49 49 3 219
2018079S09162 2018 16 SP EA IRIS 2018-04-02 00:00:00 TS -16.7750 148.600 40 995 bom main 274 274 O_____O_______ jtwc_sh SH172018 -16.8000 148.600 TS 35 1000 0 50 80 80 80 1006 190 60 -16.7500 148.600 40 995 3.00000 3.00000 30 159 139 119 150 1004 55 55 1 212
2018079S09162 2018 16 SP EA IRIS 2018-04-02 03:00:00 TS -16.8575 148.658 40 989 bom main 281 281 P_____V_______ SH172018 -16.9150 148.715 TS 37 997 0 55 85 85 80 1004 190 60 -16.8000 148.600 40 989 2.50000 3.00000 30 159 139 119 150 1004 55 55 2 131
2018079S09162 2018 16 SP EA IRIS 2018-04-02 06:00:00 TS -16.9000 148.750 35 997 bom main 292 292 O_____O_______ jtwc_sh SH172018 -17.0000 148.800 TS 40 995 0 60 90 90 80 1003 190 60 -16.8000 148.700 35 997 2.50000 3.00000 30 159 139 119 150 1004 49 49 3 100
2018079S09162 2018 16 SP EA IRIS 2018-04-02 09:00:00 TS -16.9112 148.983 40 996 bom main 313 302 P_____O_______ SH172018 -17.0225 148.865 TS 40 995 0 60 100 100 80 1004 190 60 -16.8000 149.100 40 996 2.50000 3.00000 44 50 79 59 130 1004 55 55 1 90
2018079S09162 2018 16 SP EA IRIS 2018-04-02 12:00:00 TS -16.9000 148.850 45 995 bom main 302 292 O_____O_______ jtwc_sh SH172018 -17.0000 148.900 TS 40 996 0 60 110 110 80 1005 190 60 -16.8000 148.800 45 995 3.00000 3.00000 50 50 79 79 50 150 1006 55 55 1 265
2018079S09162 2018 16 SP EA IRIS 2018-04-02 15:00:00 TS -16.9212 148.850 50 995 bom main 302 292 P_____O_______ SH172018 -16.9425 148.900 TS 42 994 0 65 115 110 80 1005 195 57 -16.9000 148.800 50 995 3.00000 3.00000 15 59 90 90 70 15 30 30 15 119 1004 69 69 1 153
2018079S09162 2018 16 SP EA IRIS 2018-04-02 18:00:00 TS -16.9500 148.850 55 994 bom main 302 300 O_____O_______ jtwc_sh SH172018 -16.9000 148.900 TS 45 993 0 70 120 110 80 1005 200 55 -17.0000 148.800 55 994 3.50000 3.50000 24 70 119 119 90 30 30 30 30 150 1004 75 75 1 107
2018079S09162 2018 16 SP EA IRIS 2018-04-02 21:00:00 TS -16.9375 148.903 55 996 bom main 302 300 P_____O_______ SH172018 -16.8749 148.905 TS 45 993 0 70 120 110 80 1005 205 55 -17.0000 148.900 55 996 3.00000 3.50000 19 79 119 110 90 30 30 130 1004 75 75 2 125
2018079S09162 2018 16 SP EA IRIS 2018-04-03 00:00:00 TS -17.0500 149.000 50 994 bom main 311 300 O_____O_______ jtwc_sh SH172018 -17.0000 149.000 TS 45 993 0 70 120 110 80 1006 210 55 -17.1000 149.000 50 994 3.00000 3.50000 19 70 119 110 59 30 30 130 1004 69 69 6 142
2018079S09162 2018 16 SP EA IRIS 2018-04-03 03:00:00 TS -17.4063 149.292 50 994 bom main 300 266 P_____O_______ SH172018 -17.4127 149.285 TS 45 993 0 70 120 110 80 1006 215 55 -17.4000 149.300 50 994 3.00000 3.00000 19 70 179 150 59 30 30 139 1006 69 69 10 148
2018079S09162 2018 16 SP EA IRIS 2018-04-03 06:00:00 TS -17.9000 149.550 50 990 bom main 271 249 O_____O_______ jtwc_sh SH172018 -17.9000 149.600 TS 45 994 0 70 120 110 80 1006 220 55 -17.9000 149.500 50 990 3.00000 3.00000 19 59 179 150 59 30 30 150 1004 69 69 9 153
2018079S09162 2018 16 SP EA IRIS 2018-04-03 09:00:00 TS -18.2149 149.733 50 988 bom main 249 241 P_____O_______ SH172018 -18.2299 149.765 TS 47 993 0 70 120 110 85 1006 215 55 -18.2000 149.700 50 988 3.50000 3.50000 24 75 179 150 90 30 30 30 30 159 1006 69 69 6 146
2018079S09162 2018 16 SP EA IRIS 2018-04-03 12:00:00 TS -18.4000 149.900 50 989 bom main 241 224 O_____O_______ jtwc_sh SH172018 -18.5000 149.900 TS 50 993 0 70 120 110 90 29 61 55 42 1006 210 55 -18.3000 149.900 50 989 3.50000 3.50000 24 75 179 150 90 30 30 30 30 159 1008 69 69 6 144
2018079S09162 2018 16 SP EA IRIS 2018-04-03 15:00:00 TS -18.6938 150.104 50 988 bom main 224 214 P_____O_______ SH172018 -18.7875 150.107 TS 52 990 0 75 120 115 90 32 61 58 42 1004 200 45 -18.6000 150.100 50 988 3.50000 3.50000 24 75 179 150 90 30 30 30 30 170 1008 69 69 7 148
2018079S09162 2018 16 SP EA IRIS 2018-04-03 18:00:00 TS -19.0000 150.300 50 987 bom main 214 206 O_____O_______ jtwc_sh SH172018 -19.0000 150.300 TS 55 988 0 80 120 120 90 36 61 61 42 1003 190 35 -19.0000 150.300 50 987 3.00000 3.50000 24 75 150 119 79 33 159 1008 69 69 5 145
2018079S09162 2018 16 SP EA IRIS 2018-04-03 21:00:00 TS -19.0900 150.396 50 987 bom main 214 214 P_____O_______ SH172018 -19.0799 150.393 TS 55 987 0 85 125 125 90 39 64 64 42 1004 185 37 -19.1000 150.400 50 987 3.00000 3.50000 24 75 150 119 79 36 159 1008 69 69 2 123
2018079S09162 2018 16 SP EA IRIS 2018-04-04 00:00:00 TS -19.1250 150.500 50 987 bom main 222 222 O_____O_______ jtwc_sh SH172018 -19.1000 150.500 TS 55 987 0 90 130 130 90 42 68 68 42 1005 180 40 -19.1500 150.500 50 987 3.00000 3.00000 30 75 130 130 75 39 179 1008 69 69 3 106
2018079S09162 2018 16 SP EA IRIS 2018-04-04 03:00:00 TS -19.1750 150.714 50 987 bom main 233 233 P_____O_______ SH172018 -19.1500 150.728 TS 52 988 0 90 130 130 90 42 67 67 42 1005 197 40 -19.2000 150.700 50 987 3.00000 3.00000 30 75 119 119 75 39 159 1006 69 69 4 106
2018079S09162 2018 16 SP EA IRIS 2018-04-04 06:00:00 TS -19.2500 150.950 45 989 bom main 261 255 O_____O_______ jtwc_sh SH172018 -19.2000 151.000 TS 50 990 0 90 130 130 90 42 67 67 42 1006 215 40 -19.3000 150.900 45 989 3.00000 3.00000 30 75 119 119 75 159 1004 64 64 6 105
2018079S09162 2018 16 SP EA IRIS 2018-04-04 09:00:00 TS -19.3250 151.325 45 988 bom main 284 284 P_____O_______ SH172018 -19.2500 151.250 TS 47 991 0 90 140 135 90 1006 215 40 -19.4000 151.400 45 988 3.00000 3.00000 30 59 90 90 59 179 1006 64 64 5 106
2018079S09162 2018 16 SP EA IRIS 2018-04-04 12:00:00 TS -19.4000 151.500 40 990 bom main 298 298 O_____O_______ jtwc_sh SH172018 -19.3000 151.500 TS 45 993 0 90 150 140 90 1006 215 40 -19.5000 151.500 40 990 3.00000 3.00000 30 59 90 90 59 159 1006 55 55 3 109
2018079S09162 2018 16 SP EA IRIS 2018-04-04 15:00:00 TS -19.4283 151.638 main 307 307 P_____P_______ SH172018 -19.3500 151.758 TS 45 992 0 90 150 140 90 1004 212 40 -19.5067 151.519 40 989 30 49 94 94 59 189 1006 3 100
2018079S09162 2018 16 SP EA IRIS 2018-04-04 18:00:00 TS -19.4500 151.800 40 988 bom main 327 322 O_____O_______ jtwc_sh SH172018 -19.4000 152.000 TS 45 992 0 90 150 140 90 1003 210 40 -19.5000 151.600 40 988 3.00000 3.00000 30 39 99 99 59 219 1006 55 55 4 100
2018079S09162 2018 16 SP EA IRIS 2018-04-04 21:00:00 TS -19.5005 152.063 main 351 349 P_____P_______ SH172018 -19.4349 152.208 TS 42 994 0 85 145 130 85 1003 200 45 -19.5661 151.919 40 989 27 34 99 99 44 199 1006 5 106
2018079S09162 2018 16 SP EA IRIS 2018-04-05 00:00:00 TS -19.6000 152.350 40 990 bom main 359 349 O_____O_______ jtwc_sh SH172018 -19.5000 152.400 TS 40 996 0 80 140 120 80 1004 190 50 -19.7000 152.300 40 990 2.50000 3.00000 24 30 99 99 30 179 1006 55 55 6 117
2018079S09162 2018 16 SP EA IRIS 2018-04-05 03:00:00 TS -19.7562 152.596 40 991 bom main 351 348 P_____V_______ SH172018 -19.6125 152.593 TS 40 995 0 75 140 120 75 1004 190 50 -19.9000 152.600 40 991 24 30 99 99 30 174 1005 55 55 6 127
2018079S09162 2018 16 SP EA IRIS 2018-04-05 06:00:00 TS -19.9500 152.850 40 991 bom main 360 343 O_____O_______ jtwc_sh SH172018 -19.8000 152.800 TS 40 995 0 70 140 120 70 1004 190 50 -20.1000 152.900 40 991 3.00000 3.00000 24 30 99 99 30 170 1004 55 55 5 135
2018079S09162 2018 16 SP EA IRIS 2018-04-05 09:00:00 TS -20.1301 152.994 40 bom main 350 341 P_____I_______ SH172018 -20.1601 153.087 TS 40 994 0 65 155 135 65 1004 190 50 -20.1000 152.900 40 991 24 30 94 109 30 160 1005 55 55 7 143
2018079S09162 2018 16 SP EA IRIS 2018-04-05 12:00:00 TS -20.5000 153.300 40 992 bom main 341 341 O_____O_______ jtwc_sh SH172018 -20.4000 153.300 TS 40 993 0 60 170 150 60 1005 190 50 -20.6000 153.300 40 992 24 30 90 119 30 150 1006 55 55 4 143
2018079S09162 2018 16 SP EA IRIS 2018-04-05 15:00:00 TS -20.4477 153.252 main 349 341 P_____P_______ SH172018 -20.2249 153.250 TS 40 993 0 60 170 145 60 1004 202 50 -20.6704 153.255 35 995 164 1006 4 338
2018079S09162 2018 16 SP EA IRIS 2018-04-05 18:00:00 TS -20.1500 153.150 30 998 bom main 365 349 O_____O_______ jtwc_sh SH172018 -19.9000 153.200 TS 40 993 0 60 170 140 60 1004 215 50 -20.4000 153.100 30 998 179 1006 45 45 7 11
2018079S09162 2018 16 SP EA IRIS 2018-04-05 21:00:00 TS -19.8102 153.378 main 403 403 P_____P_______ SH172018 -19.6777 153.435 TS 40 993 0 60 150 115 60 1004 197 50 -19.9427 153.321 8 36
2018079S09162 2018 16 SP EA IRIS 2018-04-06 00:00:00 TS -19.5000 153.650 bom main 449 442 O_____O_______ jtwc_sh SH172018 -19.5000 153.700 TS 40 993 0 60 130 90 60 1005 180 50 -19.5000 153.600 6 43
2018079S09162 2018 16 SP EA IRIS 2018-04-06 03:00:00 TS -19.3995 153.784 main 464 464 P_____P_______ SH172018 -19.3999 153.825 TS 37 994 0 60 110 90 60 1005 187 50 -19.3991 153.742 2 43
2018079S09162 2018 16 SP EA IRIS 2018-04-06 06:00:00 TS -19.3500 153.800 bom main 473 466 O_____O_______ jtwc_sh SH172018 -19.3000 153.800 TS 35 996 0 60 90 90 60 1005 195 50 -19.4000 153.800 50 2 332
2018079S09162 2018 16 SP EA IRIS 2018-04-06 09:00:00 TS -19.1842 153.667 main 474 467 P_____P_______ SH172018 -19.1301 153.572 TS 32 998 -1 1006 195 50 -19.2382 153.761 5 322
2018079S09162 2018 16 SP EA IRIS 2018-04-06 12:00:00 TS -18.9495 153.468 main 487 481 O_____P_______ jtwc_sh SH172018 -18.9000 153.300 TD 30 1000 -1 1007 195 50 -18.9990 153.635 6 327
2018079S09162 2018 16 SP EA IRIS 2018-04-06 15:00:00 TS -18.6594 153.311 main 494 494 P_____P_______ SH172018 -18.6150 153.163 TD 27 1002 -1 1007 195 50 -18.7039 153.460 7 336
2018079S09162 2018 16 SP EA IRIS 2018-04-06 18:00:00 TS -18.3373 153.185 main 513 508 O_____P_______ jtwc_sh SH172018 -18.3000 153.100 TD 25 1004 -1 1007 195 50 -18.3746 153.271 7 342
2018079S09162 2018 16 SP EA IRIS 2018-04-06 21:00:00 TS -18.0163 153.095 main 519 519 P_____P_______ SH172018 -18.0000 153.085 TD 22 1005 -1 1007 195 50 -18.0326 153.105 7 349
2018079S09162 2018 16 SP EA IRIS 2018-04-07 00:00:00 NR -17.7000 153.050 bom main 537 528 O_____O_______ jtwc_sh SH172018 -17.7000 153.100 DB 20 1007 -3 1007 195 50 -17.7000 153.000 6 353
2018079S09162 2018 16 SP EA IRIS 2018-04-07 03:00:00 NR -17.3914 153.027 main 548 548 P_____P_______ SH172018 -17.3925 153.077 DB 20 1006 -3 1007 182 50 -17.3902 152.976 6 1
2018079S09162 2018 16 SP EA IRIS 2018-04-07 06:00:00 NR -17.1000 153.050 bom main 577 577 O_____O_______ jtwc_sh SH172018 -17.1000 153.100 DB 20 1006 -3 1007 170 50 -17.1000 153.000 6 13
2018079S09162 2018 16 SP EA IRIS 2018-04-07 09:00:00 NR -16.8576 153.151 main 599 599 P_____P_______ SH172018 -16.8350 153.228 DB 20 1006 -3 1007 165 50 -16.8802 153.074 5 28
2018079S09162 2018 16 SP EA IRIS 2018-04-07 12:00:00 NR -16.6553 153.299 main 622 622 O_____P_______ jtwc_sh SH172018 -16.6000 153.400 DB 20 1007 -3 1007 160 50 -16.7107 153.198 5 37
2018079S09162 2018 16 SP EA IRIS 2018-04-07 15:00:00 NR -16.4698 153.458 main 653 653 P_____P_______ SH172018 -16.3700 153.558 DB 20 1007 -3 1007 155 50 -16.5695 153.358 5 42
2018079S09162 2018 16 SP EA IRIS 2018-04-07 18:00:00 NR -16.3176 153.619 main 676 676 O_____P_______ jtwc_sh SH172018 -16.2000 153.700 DB 20 1007 -3 1008 150 50 -16.4351 153.538 4 50
2018079S09162 2018 16 SP EA IRIS 2018-04-07 21:00:00 NR -16.2179 153.766 main 699 699 P_____P_______ SH172018 -16.1500 153.807 DB 20 1007 -3 1008 150 50 -16.2858 153.724 3 51
2018079S09162 2018 16 SP EA IRIS 2018-04-08 00:00:00 NR -16.1000 153.900 bom main 706 692 O_____O_______ jtwc_sh SH172018 -16.1000 153.900 DB 20 1007 -3 1008 150 50 -16.1000 153.900 4 39
2018079S09162 2018 16 SP EA IRIS 2018-04-08 03:00:00 NR -15.8925 154.036 main 692 679 P_____P_______ SH172018 -15.9450 154.008 DB 20 1007 -3 1008 150 50 -15.8399 154.064 5 29
2018079S09162 2018 16 SP EA IRIS 2018-04-08 06:00:00 NR -15.6429 154.157 bom main 676 657 O_____O_______ jtwc_sh SH172018 -15.7000 154.100 DB 20 1007 -3 1008 150 50 -15.6000 154.200 5 22
2018079S09162 2018 16 SP EA IRIS 2018-04-08 09:00:00 NR -15.4200 154.238 main 657 655 P_____P_______ SH172018 -15.3725 154.160 DB 20 1007 -3 1008 150 50 -15.4437 154.276 4 18
2018079S09162 2018 16 SP EA IRIS 2018-04-08 12:00:00 NR -15.2750 154.285 main 655 655 O_____P_______ jtwc_sh SH172018 -15.0000 154.200 DB 20 1007 -3 1008 150 50 -15.3437 154.306 2 25
2018079S09162 2018 16 SP EA IRIS 2018-04-08 15:00:00 NR -15.2718 154.308 main 655 646 ______P_______ SH172018 DB -3 -15.2718 154.308 1 19
2018079S09162 2018 16 SP EA IRIS 2018-04-08 18:00:00 NR -15.2000 154.300 bom main 646 637 ______O_______ -1 -15.2000 154.300 2 355
2018079S09162 2018 16 SP EA IRIS 2018-04-08 21:00:00 NR -15.1000 154.302 main 637 628 ______P_______ -1 -15.1000 154.302 2 8
2018079S09162 2018 16 SP EA IRIS 2018-04-09 00:00:00 NR -15.0000 154.300 20 1003 bom main 628 619 ______O_______ -1 -15.0000 154.300 20 1003 2.00000 2.00000 24 139 1012 34 34 2 0
2018079S09162 2018 16 SP EA IRIS 2018-04-09 03:00:00 NR -14.9175 154.309 main 619 611 ______P_______ -1 -14.9175 154.309 2 8
2018079S09162 2018 16 SP EA IRIS 2018-04-09 06:00:00 NR -14.8000 154.300 bom main 611 594 ______O_______ -1 -14.8000 154.300 3 349
2018079S09162 2018 16 SP EA IRIS 2018-04-09 09:00:00 NR -14.6021 154.247 main 587 562 ______P_______ -1 -14.6021 154.247 5 343
2018079S09162 2018 16 SP EA IRIS 2018-04-09 12:00:00 NR -14.3307 154.155 main 562 523 ______P_______ -1 -14.3307 154.155 6 341
2018079S09162 2018 16 SP EA IRIS 2018-04-09 15:00:00 NR -14.0059 154.035 main 523 491 ______P_______ -1 -14.0059 154.035 7 340
2018079S09162 2018 16 SP EA IRIS 2018-04-09 18:00:00 NR -13.6476 153.896 main 483 460 ______P_______ -1 -13.6476 153.896 8 339
2018079S09162 2018 16 SP EA IRIS 2018-04-09 20:00:00 NR -13.4000 153.800 20 1005 bom main 460 ______O_______ -1 -13.4000 153.800 20 1005 34 34 8 339

Digital Typhoon Data and Search

About IBTrACS Database

This database is a web-friendly format of International Best Track Archive for Climate Stewardship (IBTrACS), a global best track data archive curated by NOAA dating back to 1842.

Updated: 2021-12-08